General Aviation Weather

Text Reports

Enter one or more of the following location identifiers separated by a space:

Zip Code, Four-Character ICAO or Three-Character IATA airport codes.

METAR - Aviation Routine Weather Report
KSKX - Taos, New Mexico
Updated at 5:15 AM GMT on February 01, 2015 (10:15 PM MST):
METAR KSKX 010515Z AUTO 27005KT 3SM OVC003 M01/M02 A2994 RMK AO1
TAF - Terminal Area Forecast
KSKX - Taos, New Mexico
Updated at 5:15 AM GMT on February 01, 2015 (10:15 PM MST):
No TAF is currently available for this location.
Decoded:
No decoded TAF is available.
PIREP - Pilot Weather Report
KSKX - Taos, New Mexico
Updated at 5:15 AM GMT on February 01, 2015 (10:15 PM MST):
No PIREP is currently available for this location.
AIRMET - Airmens Meteorological Information
KSKX - Taos, New Mexico
Updated at 5:15 AM GMT on February 01, 2015 (10:15 PM MST):
No AIRMET is currently available for this location.
SIGMET - Significant Meteorological Information
KSKX - Taos, New Mexico
Updated at 5:15 AM GMT on February 01, 2015 (10:15 PM MST):
No SIGMET is currently available for this location.
NOTAM - Notice to Airmen
KSKX - Taos, New Mexico
Updated at 5:15 AM GMT on February 01, 2015 (10:15 PM MST):
No NOTAM is currently available for this location.
Forecast Area
KSKX - Taos, New Mexico
Updated at 5:15 AM GMT on February 01, 2015 (10:15 PM MST):
No NOTAM is currently available for this location.
Aviation Weather Maps